Time;durP1;ratioP1;P1;durP2;ratioP2;P2;SDS_P1;SDS_P2;PMS_P1;PMS_P2;Temp;Humidity;BMP_temperature;BMP_pressure;BME280_temperature;BME280_humidity;BME280_pressure;Samples;Min_cycle;Max_cycle;Signal;HPM_P1;HPM_P2
2023/03/24 00:02:06;;;;;;;3.53;2.58;;;13.90;99.90;;;;;;4953117;28;20035;-90
2023/03/24 00:04:33;;;;;;;6.22;3.63;;;13.80;99.90;;;;;;4953238;28;20046;-90
2023/03/24 00:07:00;;;;;;;3.95;3.22;;;13.80;99.90;;;;;;4953143;28;20024;-89
2023/03/24 00:09:30;;;;;;;5.75;3.15;;;13.80;99.90;;;;;;4952933;28;20114;-90
2023/03/24 00:11:58;;;;;;;5.25;3.30;;;13.80;99.90;;;;;;4952682;28;20027;-90
2023/03/24 00:14:24;;;;;;;5.63;3.33;;;13.80;99.90;;;;;;4952162;28;20043;-90
2023/03/24 00:16:51;;;;;;;3.78;3.17;;;13.80;99.90;;;;;;4953167;28;20110;-89
2023/03/24 00:19:18;;;;;;;7.45;3.50;;;13.80;99.90;;;;;;4952962;28;20031;-90
2023/03/24 00:21:44;;;;;;;5.82;3.50;;;13.70;99.90;;;;;;4952799;28;20031;-90
2023/03/24 00:24:11;;;;;;;3.92;3.55;;;13.70;99.90;;;;;;4952786;28;20401;-90
2023/03/24 00:26:40;;;;;;;4.35;3.35;;;13.70;99.90;;;;;;4940789;28;20056;-90
2023/03/24 00:29:08;;;;;;;5.28;3.42;;;13.70;99.90;;;;;;4933324;29;20062;-89
2023/03/24 00:31:38;;;;;;;5.50;3.55;;;13.70;99.90;;;;;;4933620;29;20039;-90
2023/03/24 00:34:06;;;;;;;5.78;3.30;;;13.80;99.90;;;;;;4932682;29;20375;-90
2023/03/24 00:36:32;;;;;;;6.50;3.40;;;13.70;99.90;;;;;;4933388;29;20035;-90
2023/03/24 00:38:57;;;;;;;10.05;3.70;;;13.70;99.90;;;;;;4932240;29;20024;-90
2023/03/24 00:41:25;;;;;;;6.00;4.30;;;13.70;99.90;;;;;;4933186;29;20115;-90
2023/03/24 00:43:54;;;;;;;5.47;3.40;;;13.70;99.90;;;;;;4933460;29;20030;-90
2023/03/24 00:46:26;;;;;;;6.45;3.70;;;13.60;99.90;;;;;;4949477;29;20057;-90
2023/03/24 00:49:04;;;;;;;5.80;3.30;;;13.50;99.90;;;;;;4952802;28;20019;-90
2023/03/24 00:51:33;;;;;;;7.65;3.72;;;13.60;99.90;;;;;;4952483;28;20043;-90
2023/03/24 00:54:00;;;;;;;5.13;3.67;;;13.60;99.90;;;;;;4951819;28;20038;-90
2023/03/24 00:56:28;;;;;;;5.68;3.83;;;13.60;99.90;;;;;;4952486;28;20042;-90
2023/03/24 00:58:56;;;;;;;7.18;4.28;;;13.60;99.90;;;;;;4952314;28;20118;-90
2023/03/24 01:01:26;;;;;;;4.68;3.92;;;13.60;99.90;;;;;;4952184;28;20118;-89
2023/03/24 01:03:52;;;;;;;5.18;3.85;;;13.50;99.90;;;;;;4952507;28;20390;-90
2023/03/24 01:06:21;;;;;;;6.47;4.10;;;13.50;99.90;;;;;;4952108;28;20023;-90
2023/03/24 01:08:48;;;;;;;6.95;4.47;;;13.50;99.90;;;;;;4951969;28;20271;-90
2023/03/24 01:11:15;;;;;;;7.40;4.82;;;13.50;99.90;;;;;;4952383;28;20036;-90
2023/03/24 01:13:41;;;;;;;5.68;4.40;;;13.40;99.90;;;;;;4951868;28;20505;-90
2023/03/24 01:16:07;;;;;;;8.27;4.45;;;13.40;99.90;;;;;;4952107;28;20043;-89
2023/03/24 01:18:33;;;;;;;4.90;4.05;;;13.40;99.90;;;;;;4952084;28;20023;-90
2023/03/24 01:21:00;;;;;;;8.15;4.55;;;13.40;99.90;;;;;;4952150;28;20035;-90
2023/03/24 01:23:29;;;;;;;4.93;4.20;;;13.40;99.90;;;;;;4951584;28;20028;-90
2023/03/24 01:25:55;;;;;;;6.43;4.20;;;13.40;99.90;;;;;;4965386;28;20178;-90
2023/03/24 01:28:23;;;;;;;4.45;4.03;;;13.40;99.90;;;;;;4951630;28;20055;-90
2023/03/24 01:30:51;;;;;;;4.55;4.13;;;13.40;99.90;;;;;;4952070;28;20555;-90
2023/03/24 01:33:17;;;;;;;5.13;4.53;;;13.50;99.90;;;;;;4951862;28;20023;-90
2023/03/24 01:35:42;;;;;;;7.57;4.38;;;13.50;99.90;;;;;;4951709;28;20089;-90
2023/03/24 01:38:10;;;;;;;6.80;4.65;;;13.50;99.90;;;;;;4951427;28;20023;-89
2023/03/24 01:40:38;;;;;;;7.82;4.95;;;13.70;99.90;;;;;;4951744;28;20489;-90
2023/03/24 01:43:05;;;;;;;4.93;4.00;;;13.60;99.90;;;;;;4951654;28;20027;-90
2023/03/24 01:46:05;;;;;;;5.75;5.03;;;13.60;99.90;;;;;;4951475;29;20073;-90
2023/03/24 01:48:40;;;;;;;5.13;4.63;;;13.60;99.90;;;;;;4949238;29;20043;-90
2023/03/24 01:51:18;;;;;;;5.40;4.90;;;13.60;99.90;;;;;;4933218;28;20054;-89
2023/03/24 01:53:49;;;;;;;5.22;4.70;;;13.50;99.90;;;;;;4932946;29;20106;-89
2023/03/24 01:56:14;;;;;;;6.38;5.05;;;13.50;99.90;;;;;;4949335;29;20036;-90
2023/03/24 01:58:49;;;;;;;8.30;5.22;;;13.50;99.90;;;;;;4949089;29;20037;-90
2023/03/24 02:01:16;;;;;;;5.95;5.00;;;13.40;99.90;;;;;;4949304;29;20027;-90
2023/03/24 02:03:43;;;;;;;6.97;4.85;;;13.40;99.90;;;;;;4949140;29;20031;-90
2023/03/24 02:06:10;;;;;;;8.27;4.88;;;13.30;99.90;;;;;;4949519;29;20394;-90
2023/03/24 02:08:39;;;;;;;6.40;5.10;;;13.40;99.90;;;;;;4949146;29;20031;-90
2023/03/24 02:11:04;;;;;;;5.53;4.85;;;13.40;99.90;;;;;;4949070;29;20050;-90
2023/03/24 02:13:30;;;;;;;5.45;4.72;;;13.50;99.90;;;;;;4933049;29;20424;-90
2023/03/24 02:16:22;;;;;;;5.85;5.28;;;13.40;99.90;;;;;;4949171;29;20042;-90
2023/03/24 02:19:11;;;;;;;5.68;5.05;;;13.40;99.90;;;;;;4949180;29;20038;-90
2023/03/24 02:22:01;;;;;;;7.15;4.88;;;13.40;99.90;;;;;;4948983;29;20104;-90
2023/03/24 02:24:55;;;;;;;8.05;5.05;;;13.40;99.90;;;;;;4943147;29;20117;-90
2023/03/24 02:27:46;;;;;;;7.45;4.68;;;13.40;99.90;;;;;;4948458;29;20059;-90
2023/03/24 02:30:25;;;;;;;6.38;4.28;;;13.40;99.90;;;;;;4948870;29;20518;-90
2023/03/24 02:33:16;;;;;;;6.70;4.38;;;13.40;99.90;;;;;;4949001;29;20039;-89
2023/03/24 02:36:06;;;;;;;4.28;3.80;;;13.50;99.90;;;;;;4947302;29;20043;-90
2023/03/24 02:38:56;;;;;;;8.35;4.55;;;13.40;99.90;;;;;;4950705;28;20421;-90
2023/03/24 02:41:37;;;;;;;6.35;4.53;;;13.40;99.90;;;;;;4952036;29;20031;-89
2023/03/24 02:44:33;;;;;;;6.32;4.45;;;13.40;99.90;;;;;;4952149;28;20060;-90
2023/03/24 02:47:09;;;;;;;5.82;4.70;;;13.40;99.90;;;;;;4932828;29;20428;-90
2023/03/24 02:50:01;;;;;;;4.65;4.15;;;13.30;99.90;;;;;;4932783;29;20062;-89
2023/03/24 02:52:32;;;;;;;7.30;4.15;;;13.20;99.90;;;;;;4932630;29;20040;-90
2023/03/24 02:55:11;;;;;;;4.40;3.97;;;13.20;99.90;;;;;;4932760;29;20036;-90
2023/03/24 02:57:51;;;;;;;4.45;3.88;;;13.20;99.90;;;;;;4933147;29;20028;-89
2023/03/24 03:00:25;;;;;;;5.65;3.90;;;13.30;99.90;;;;;;4933046;29;20038;-90
2023/03/24 03:02:57;;;;;;;4.78;3.70;;;13.30;99.90;;;;;;4932634;29;20027;-90
2023/03/24 03:05:32;;;;;;;5.90;4.03;;;13.20;99.90;;;;;;4934348;29;20032;-89
2023/03/24 03:08:02;;;;;;;5.20;3.53;;;13.40;99.90;;;;;;4933513;29;20032;-89
2023/03/24 03:10:41;;;;;;;5.20;3.50;;;13.30;99.90;;;;;;4934487;28;20050;-90
2023/03/24 03:13:14;;;;;;;3.67;3.35;;;13.30;99.90;;;;;;4934658;28;20499;-90
2023/03/24 03:15:47;;;;;;;4.90;3.25;;;13.50;99.90;;;;;;4933724;29;20028;-89
2023/03/24 03:18:22;;;;;;;4.90;3.00;;;13.50;99.90;;;;;;4933407;29;20491;-90
2023/03/24 03:20:54;;;;;;;5.40;3.40;;;13.50;99.90;;;;;;4934384;28;20405;-90
2023/03/24 03:23:27;;;;;;;5.43;2.97;;;13.60;99.90;;;;;;4934492;29;20119;-90
2023/03/24 03:26:03;;;;;;;4.68;3.20;;;13.60;99.90;;;;;;4934633;28;20483;-90
2023/03/24 03:28:31;;;;;;;7.57;3.10;;;13.70;99.90;;;;;;4934531;29;20028;-90
2023/03/24 03:31:05;;;;;;;4.85;3.40;;;13.50;99.90;;;;;;4934448;29;20040;-90
2023/03/24 03:33:42;;;;;;;3.70;3.10;;;13.50;99.90;;;;;;4932849;29;20020;-90
2023/03/24 03:36:21;;;;;;;5.03;3.25;;;13.50;99.90;;;;;;4934458;29;20048;-90
2023/03/24 03:39:05;;;;;;;4.05;3.15;;;13.40;99.90;;;;;;4934240;29;20043;-90
2023/03/24 03:41:31;;;;;;;4.60;2.85;;;13.40;99.90;;;;;;4934798;29;20030;-90
2023/03/24 03:43:57;;;;;;;5.22;2.72;;;13.40;99.90;;;;;;4934199;29;20482;-90
2023/03/24 03:46:23;;;;;;;3.00;2.63;;;13.50;99.90;;;;;;4951023;29;20033;-90
2023/03/24 03:48:48;;;;;;;4.72;2.65;;;13.40;99.90;;;;;;4952640;28;20482;-90
2023/03/24 03:51:15;;;;;;;5.50;2.60;;;13.30;99.90;;;;;;4952962;28;20032;-90
2023/03/24 03:53:49;;;;;;;6.93;2.85;;;13.30;99.90;;;;;;4953551;28;20034;-90
2023/03/24 03:56:18;;;;;;;5.00;2.67;;;13.40;99.90;;;;;;4953254;28;20086;-90
2023/03/24 03:58:46;;;;;;;3.50;2.13;;;13.40;99.90;;;;;;4953239;28;20024;-90
2023/03/24 04:01:17;;;;;;;3.22;2.17;;;13.60;99.90;;;;;;4953112;28;20046;-90
2023/03/24 04:03:59;;;;;;;4.95;2.47;;;13.60;99.90;;;;;;4953041;28;20386;-90
2023/03/24 04:06:52;;;;;;;2.97;2.28;;;13.60;99.90;;;;;;4953303;28;20486;-90
2023/03/24 04:09:31;;;;;;;3.08;2.30;;;13.50;99.90;;;;;;4953296;28;20047;-90
2023/03/24 04:12:26;;;;;;;4.90;2.45;;;13.30;99.90;;;;;;4952652;28;20452;-90
2023/03/24 04:14:51;;;;;;;2.42;2.10;;;13.40;99.90;;;;;;4952875;28;20035;-89
2023/03/24 04:17:29;;;;;;;2.67;2.00;;;13.40;99.90;;;;;;4952587;28;20511;-90
2023/03/24 04:20:18;;;;;;;3.15;1.90;;;13.40;99.90;;;;;;4952825;28;20027;-90
2023/03/24 04:23:08;;;;;;;2.05;1.70;;;13.50;99.90;;;;;;4952691;28;20046;-90
2023/03/24 04:25:48;;;;;;;6.43;2.10;;;13.50;99.90;;;;;;4949053;28;20047;-90
2023/03/24 04:28:18;;;;;;;3.40;2.00;;;13.50;99.90;;;;;;4933522;29;20162;-90
2023/03/24 04:31:00;;;;;;;3.03;2.15;;;13.50;99.90;;;;;;4933457;29;20039;-90
2023/03/24 04:33:50;;;;;;;2.28;1.70;;;13.60;99.90;;;;;;4933652;29;20032;-90
2023/03/24 04:36:26;;;;;;;4.63;2.08;;;13.60;99.90;;;;;;4933617;29;20023;-90
2023/03/24 04:38:53;;;;;;;3.15;2.03;;;13.60;99.90;;;;;;4932684;29;20032;-90
2023/03/24 04:41:20;;;;;;;4.28;1.67;;;13.70;99.90;;;;;;4933180;29;20031;-90
2023/03/24 04:43:47;;;;;;;2.90;1.67;;;13.70;99.90;;;;;;4933091;29;20028;-91
2023/03/24 04:46:16;;;;;;;4.22;1.67;;;13.60;99.90;;;;;;4948712;29;20040;-90
2023/03/24 04:48:47;;;;;;;1.98;1.60;;;13.60;99.90;;;;;;4952685;28;20493;-91
2023/03/24 04:51:14;;;;;;;2.85;1.92;;;13.50;99.90;;;;;;4952431;28;20122;-90
2023/03/24 04:53:40;;;;;;;3.17;1.90;;;13.50;99.90;;;;;;4951863;28;20020;-90
2023/03/24 04:56:25;;;;;;;3.38;2.10;;;13.50;99.90;;;;;;4952514;28;20053;-90
2023/03/24 04:58:50;;;;;;;2.95;1.98;;;13.50;99.90;;;;;;4952306;28;20037;-90
2023/03/24 05:01:16;;;;;;;5.95;2.10;;;13.50;99.90;;;;;;4951619;28;20118;-89
2023/03/24 05:03:44;;;;;;;2.65;1.95;;;13.50;99.90;;;;;;4952028;28;20112;-91
2023/03/24 05:06:11;;;;;;;3.55;2.13;;;13.50;99.90;;;;;;4951742;28;20513;-91
2023/03/24 05:08:38;;;;;;;5.45;1.60;;;13.40;99.90;;;;;;4952547;28;20031;-89
2023/03/24 05:11:04;;;;;;;2.28;1.80;;;13.50;99.90;;;;;;4951871;28;20043;-90
2023/03/24 05:13:30;;;;;;;3.47;1.90;;;13.40;99.90;;;;;;4952367;28;20019;-90
2023/03/24 05:15:55;;;;;;;3.92;2.28;;;13.40;99.90;;;;;;4951812;28;20106;-90
2023/03/24 05:18:21;;;;;;;3.25;2.13;;;13.40;99.90;;;;;;4952129;28;20027;-90
2023/03/24 05:20:47;;;;;;;3.42;1.85;;;13.40;99.90;;;;;;4952399;28;20035;-90
2023/03/24 05:23:12;;;;;;;4.00;2.28;;;13.40;99.90;;;;;;4951715;28;20477;-90
2023/03/24 05:25:38;;;;;;;5.05;2.40;;;13.40;99.90;;;;;;4951664;28;20027;-90
2023/03/24 05:28:04;;;;;;;6.30;2.15;;;13.40;99.90;;;;;;4952114;28;20031;-90
2023/03/24 05:30:30;;;;;;;3.05;1.70;;;13.40;99.90;;;;;;4951323;28;20392;-90
2023/03/24 05:32:55;;;;;;;2.78;1.95;;;13.40;99.90;;;;;;4951625;28;20038;-90
2023/03/24 05:35:21;;;;;;;3.60;2.00;;;13.50;99.90;;;;;;4951825;28;20038;-90
2023/03/24 05:37:47;;;;;;;3.25;1.95;;;13.50;99.90;;;;;;4951817;28;20036;-90
2023/03/24 05:40:14;;;;;;;5.22;2.30;;;13.40;99.90;;;;;;4951770;28;20089;-92
2023/03/24 05:42:40;;;;;;;6.85;2.10;;;13.50;99.90;;;;;;4952275;28;20027;-90
2023/03/24 05:45:06;;;;;;;4.03;2.10;;;13.40;99.90;;;;;;4950938;28;20033;-90
2023/03/24 05:47:32;;;;;;;4.05;2.03;;;13.40;99.90;;;;;;4951670;28;20031;-90
2023/03/24 05:49:57;;;;;;;2.17;1.85;;;13.40;99.90;;;;;;4951683;28;20406;-90
2023/03/24 05:52:23;;;;;;;6.70;2.10;;;13.40;99.90;;;;;;4951399;28;20397;-90
2023/03/24 05:54:51;;;;;;;3.70;2.50;;;13.40;99.90;;;;;;4951560;28;20085;-90
2023/03/24 05:57:17;;;;;;;4.47;2.30;;;13.40;99.90;;;;;;4951635;28;20027;-90
2023/03/24 05:59:43;;;;;;;2.28;2.08;;;13.40;99.90;;;;;;4951408;28;20027;-90
2023/03/24 06:02:09;;;;;;;8.77;2.00;;;13.50;99.90;;;;;;4951479;28;20440;-90
2023/03/24 06:04:35;;;;;;;4.55;2.63;;;13.50;99.90;;;;;;4951362;28;20506;-90
2023/03/24 06:07:01;;;;;;;3.33;2.00;;;13.50;99.90;;;;;;4951259;28;20032;-90
2023/03/24 06:09:36;;;;;;;3.88;2.22;;;13.50;99.90;;;;;;4951942;28;20032;-90
2023/03/24 06:12:03;;;;;;;4.97;2.55;;;13.50;99.90;;;;;;4951544;28;20039;-92
2023/03/24 06:14:29;;;;;;;7.03;2.38;;;13.50;99.90;;;;;;4954253;28;20023;-89
2023/03/24 06:16:58;;;;;;;5.07;2.42;;;13.50;99.90;;;;;;4954611;28;20024;-89
2023/03/24 06:19:24;;;;;;;5.30;2.97;;;13.50;99.90;;;;;;4954713;28;20039;-89
2023/03/24 06:21:50;;;;;;;5.13;2.35;;;13.50;99.90;;;;;;4954940;28;20023;-90
2023/03/24 06:24:16;;;;;;;3.65;2.60;;;13.50;99.90;;;;;;4954461;28;20038;-90
2023/03/24 06:26:43;;;;;;;5.88;2.80;;;13.40;99.90;;;;;;4941725;28;20089;-89
2023/03/24 06:29:11;;;;;;;7.00;2.97;;;13.50;99.90;;;;;;4935031;29;20050;-90
2023/03/24 06:31:37;;;;;;;4.00;2.65;;;13.50;99.90;;;;;;4935382;29;20067;-89
2023/03/24 06:34:04;;;;;;;4.38;2.90;;;13.50;99.90;;;;;;4935205;29;20027;-89
2023/03/24 06:36:29;;;;;;;4.40;2.58;;;13.50;99.90;;;;;;4933839;29;20042;-90
2023/03/24 06:38:55;;;;;;;2.90;2.40;;;13.50;99.90;;;;;;4935600;29;20106;-91
2023/03/24 06:41:22;;;;;;;4.50;2.60;;;13.60;99.90;;;;;;4935179;29;20031;-90
2023/03/24 06:43:48;;;;;;;4.05;2.28;;;13.50;99.90;;;;;;4934877;29;20494;-90
2023/03/24 06:46:14;;;;;;;4.57;2.67;;;13.60;99.90;;;;;;4951000;29;20111;-90
2023/03/24 06:48:40;;;;;;;3.47;2.65;;;13.60;99.90;;;;;;4954029;28;20027;-90
2023/03/24 06:51:06;;;;;;;4.30;2.35;;;13.70;99.90;;;;;;4953010;28;20502;-90
2023/03/24 06:53:31;;;;;;;4.70;2.40;;;13.70;99.90;;;;;;4952775;28;20026;-91
2023/03/24 06:55:57;;;;;;;4.28;2.28;;;13.70;99.90;;;;;;4954319;28;20114;-90
2023/03/24 06:58:23;;;;;;;5.90;2.42;;;13.80;99.90;;;;;;4953824;28;20421;-91
2023/03/24 07:00:49;;;;;;;5.30;2.25;;;13.80;99.90;;;;;;4953983;28;20040;-90
2023/03/24 07:03:15;;;;;;;2.92;2.25;;;13.80;99.90;;;;;;4953948;28;20027;-90
2023/03/24 07:05:43;;;;;;;4.72;2.38;;;13.90;99.90;;;;;;4954098;28;20031;-90
2023/03/24 07:08:10;;;;;;;2.88;2.00;;;13.90;99.90;;;;;;4953588;28;20527;-88
2023/03/24 07:10:38;;;;;;;4.10;2.10;;;13.90;99.90;;;;;;4952759;28;20135;-88
2023/03/24 07:13:05;;;;;;;3.78;2.30;;;13.80;99.90;;;;;;4953007;29;20521;-88
2023/03/24 07:15:32;;;;;;;3.08;1.73;;;13.80;99.90;;;;;;4953698;29;20031;-90
2023/03/24 07:17:57;;;;;;;3.35;1.90;;;13.90;99.90;;;;;;4953476;29;20031;-88
2023/03/24 07:20:23;;;;;;;5.07;2.30;;;13.90;99.90;;;;;;4956893;28;20517;-91
2023/03/24 07:22:49;;;;;;;3.60;2.33;;;13.90;99.90;;;;;;4952735;28;20051;-90
2023/03/24 07:25:18;;;;;;;3.72;2.20;;;13.90;99.90;;;;;;4951329;28;20058;-89
2023/03/24 07:27:45;;;;;;;5.95;1.98;;;13.80;99.90;;;;;;4949808;28;20038;-90
2023/03/24 07:30:11;;;;;;;4.18;2.15;;;13.80;99.90;;;;;;4953274;28;20050;-91
2023/03/24 07:32:38;;;;;;;2.10;1.80;;;13.80;99.90;;;;;;4951229;28;20111;-90
2023/03/24 07:35:09;;;;;;;3.88;2.33;;;13.80;99.90;;;;;;4951546;29;20031;-91
2023/03/24 07:37:35;;;;;;;7.28;2.50;;;13.80;99.90;;;;;;4934476;29;20486;-91
2023/03/24 07:40:05;;;;;;;1.90;1.70;;;13.90;99.90;;;;;;4946128;28;20031;-89
2023/03/24 07:42:31;;;;;;;3.85;2.10;;;13.90;99.90;;;;;;4954033;28;20683;-89
2023/03/24 07:44:57;;;;;;;4.40;2.10;;;13.90;99.90;;;;;;4951934;28;20161;-88
2023/03/24 07:47:23;;;;;;;3.58;2.08;;;14.00;99.90;;;;;;4953999;29;20023;-91
2023/03/24 07:49:48;;;;;;;3.53;2.00;;;14.00;99.90;;;;;;4933940;29;20027;-90
2023/03/24 07:52:14;;;;;;;2.90;1.98;;;14.10;99.90;;;;;;4934055;29;20349;-91
2023/03/24 07:54:39;;;;;;;3.63;2.00;;;14.10;99.90;;;;;;4933780;29;20027;-90
2023/03/24 07:57:06;;;;;;;3.78;2.15;;;14.10;99.90;;;;;;4934283;29;20070;-91
2023/03/24 07:59:33;;;;;;;3.97;1.90;;;14.10;99.90;;;;;;4933766;29;20023;-91
2023/03/24 08:01:58;;;;;;;3.72;1.88;;;14.10;99.90;;;;;;4934034;29;20055;-90
2023/03/24 08:04:26;;;;;;;2.92;1.70;;;14.10;99.90;;;;;;4933845;29;20063;-91
2023/03/24 08:06:52;;;;;;;5.38;2.20;;;14.10;99.90;;;;;;4934385;29;20031;-91
2023/03/24 08:09:18;;;;;;;2.90;1.83;;;14.10;99.90;;;;;;4933721;28;20024;-91
2023/03/24 08:11:44;;;;;;;2.97;1.80;;;14.10;99.90;;;;;;4933690;29;20090;-91
2023/03/24 08:14:09;;;;;;;4.80;1.90;;;14.10;99.90;;;;;;4933882;29;20024;-90
2023/03/24 08:16:37;;;;;;;4.25;1.88;;;14.10;99.90;;;;;;4933646;29;20027;-91
2023/03/24 08:19:03;;;;;;;4.38;2.17;;;14.10;99.90;;;;;;4933641;29;20035;-90
2023/03/24 08:21:29;;;;;;;3.42;2.00;;;14.10;99.90;;;;;;4933833;29;20032;-90
2023/03/24 08:23:54;;;;;;;5.07;2.15;;;14.00;99.90;;;;;;4933714;29;20024;-91
2023/03/24 08:26:21;;;;;;;4.28;2.50;;;14.10;99.90;;;;;;4933149;28;20446;-91
2023/03/24 08:28:48;;;;;;;6.00;2.65;;;14.10;99.90;;;;;;4933712;29;20058;-90
2023/03/24 08:31:14;;;;;;;5.32;2.30;;;14.20;99.90;;;;;;4933528;29;20421;-91
2023/03/24 08:33:40;;;;;;;2.55;1.70;;;14.20;99.90;;;;;;4933301;29;20024;-91
2023/03/24 08:36:07;;;;;;;6.80;2.15;;;14.20;99.90;;;;;;4933231;29;20042;-91
2023/03/24 08:38:33;;;;;;;4.53;2.00;;;14.20;99.90;;;;;;4933483;29;20036;-91
2023/03/24 08:41:05;;;;;;;3.38;1.75;;;14.20;99.90;;;;;;4933227;29;20032;-90
2023/03/24 08:43:32;;;;;;;3.08;1.80;;;14.30;99.90;;;;;;4933347;29;20028;-91
2023/03/24 08:45:59;;;;;;;4.35;2.00;;;14.30;99.90;;;;;;4945556;29;20031;-90
2023/03/24 08:48:25;;;;;;;1.88;1.55;;;14.30;99.90;;;;;;4952964;28;20406;-91
2023/03/24 08:50:51;;;;;;;1.88;1.65;;;14.30;99.90;;;;;;4952375;28;20081;-91
2023/03/24 08:53:17;;;;;;;2.72;1.65;;;14.30;99.90;;;;;;4951925;28;20035;-91
2023/03/24 08:55:44;;;;;;;4.65;2.08;;;14.30;99.90;;;;;;4952350;28;20030;-90
2023/03/24 08:58:18;;;;;;;4.20;1.90;;;14.30;99.90;;;;;;4952229;28;20391;-91
2023/03/24 09:00:45;;;;;;;4.00;2.08;;;14.40;99.90;;;;;;4952267;28;20035;-91
2023/03/24 09:03:21;;;;;;;4.07;2.08;;;14.40;99.90;;;;;;4952257;28;20492;-91
2023/03/24 09:05:47;;;;;;;4.07;2.00;;;14.40;99.90;;;;;;4952256;28;20494;-91
2023/03/24 09:08:18;;;;;;;8.90;2.03;;;14.40;99.90;;;;;;4951866;28;20091;-91
2023/03/24 09:10:47;;;;;;;3.63;1.90;;;14.40;99.90;;;;;;4952517;28;20043;-91
2023/03/24 09:13:13;;;;;;;3.40;1.80;;;14.50;99.90;;;;;;4951912;28;20432;-90
2023/03/24 09:15:38;;;;;;;5.60;1.90;;;14.50;99.90;;;;;;4950884;28;20034;-91
2023/03/24 09:18:05;;;;;;;7.60;1.98;;;14.50;99.90;;;;;;4952233;28;20035;-91
2023/03/24 09:20:31;;;;;;;3.20;2.00;;;14.60;99.90;;;;;;4952066;28;20092;-91
2023/03/24 09:22:56;;;;;;;2.70;1.90;;;14.60;99.90;;;;;;4951620;28;20592;-91
2023/03/24 09:25:22;;;;;;;2.47;1.60;;;14.70;99.90;;;;;;4949977;28;20047;-91
2023/03/24 09:27:49;;;;;;;3.60;1.75;;;14.70;99.90;;;;;;4931373;29;20383;-92
2023/03/24 09:30:16;;;;;;;2.92;1.77;;;14.70;99.90;;;;;;4932828;29;20383;-91
2023/03/24 09:32:43;;;;;;;3.70;1.80;;;14.70;99.90;;;;;;4933170;29;20028;-91
2023/03/24 09:35:09;;;;;;;6.00;2.00;;;14.80;99.90;;;;;;4932534;29;20035;-91
2023/03/24 09:37:37;;;;;;;4.85;1.90;;;14.80;99.90;;;;;;4932396;29;20099;-90
2023/03/24 09:40:03;;;;;;;3.92;2.13;;;14.80;99.90;;;;;;4932848;29;20490;-91
2023/03/24 09:42:34;;;;;;;3.78;1.83;;;14.80;99.90;;;;;;4932583;29;20028;-91
2023/03/24 09:45:09;;;;;;;3.33;1.90;;;14.90;99.90;;;;;;4938313;29;20485;-91
2023/03/24 09:47:43;;;;;;;4.30;2.17;;;15.00;99.90;;;;;;4950620;28;20110;-90
2023/03/24 09:50:19;;;;;;;2.78;1.60;;;14.90;99.90;;;;;;4951714;28;20370;-91
2023/03/24 09:52:49;;;;;;;5.55;1.80;;;15.00;99.90;;;;;;4951989;28;20458;-91
2023/03/24 09:55:27;;;;;;;3.22;1.83;;;14.90;99.90;;;;;;4951633;28;20085;-91
2023/03/24 09:57:58;;;;;;;5.65;2.03;;;15.10;99.90;;;;;;4951554;28;20085;-91
2023/03/24 10:00:30;;;;;;;2.85;1.70;;;15.10;99.90;;;;;;4951477;28;20026;-91
2023/03/24 10:03:22;;;;;;;3.70;1.92;;;15.10;99.90;;;;;;4951840;28;20478;-91
2023/03/24 10:05:51;;;;;;;3.28;1.80;;;15.10;99.90;;;;;;4951062;28;20043;-91
2023/03/24 10:08:20;;;;;;;2.42;1.90;;;15.20;99.90;;;;;;4951405;28;20106;-91
2023/03/24 10:10:56;;;;;;;4.07;2.05;;;15.20;99.90;;;;;;4949843;28;20035;-91
2023/03/24 10:13:39;;;;;;;4.10;1.95;;;15.20;99.90;;;;;;4952033;28;20019;-91
2023/03/24 10:16:45;;;;;;;4.60;2.03;;;15.10;99.90;;;;;;4951297;28;20448;-91
2023/03/24 10:19:28;;;;;;;4.90;1.75;;;15.20;99.90;;;;;;4948975;29;20126;-90
2023/03/24 10:22:09;;;;;;;3.15;1.90;;;15.30;99.90;;;;;;4949109;29;20057;-91
2023/03/24 10:24:54;;;;;;;5.70;1.98;;;15.30;99.90;;;;;;4949274;29;20054;-91
2023/03/24 10:27:19;;;;;;;4.93;2.58;;;15.30;99.90;;;;;;4948650;29;20142;-91
2023/03/24 10:29:48;;;;;;;4.57;1.83;;;15.40;99.90;;;;;;4948974;29;20154;-90
2023/03/24 10:32:24;;;;;;;3.63;1.70;;;15.30;99.90;;;;;;4948718;29;20035;-91
2023/03/24 10:35:06;;;;;;;2.83;1.83;;;15.40;99.90;;;;;;4948561;29;20035;-91
2023/03/24 10:37:31;;;;;;;2.95;1.67;;;15.40;99.90;;;;;;4949009;29;20039;-90
2023/03/24 10:39:59;;;;;;;6.55;2.25;;;15.40;99.90;;;;;;4948933;29;20034;-91
2023/03/24 10:42:27;;;;;;;4.22;2.50;;;15.40;99.90;;;;;;4948628;29;20032;-91
2023/03/24 10:44:52;;;;;;;2.97;1.90;;;15.50;99.90;;;;;;4934664;29;20031;-91
2023/03/24 10:47:24;;;;;;;5.15;1.80;;;15.40;99.90;;;;;;4948864;29;20026;-91
2023/03/24 10:50:08;;;;;;;3.38;2.10;;;15.40;99.90;;;;;;4948312;29;20047;-91
2023/03/24 10:52:39;;;;;;;5.28;2.28;;;15.40;99.90;;;;;;4949250;29;20035;-91
2023/03/24 10:55:06;;;;;;;3.55;1.70;;;15.50;99.90;;;;;;4946229;29;20063;-91
2023/03/24 10:57:33;;;;;;;5.20;2.15;;;15.60;99.90;;;;;;4930443;29;20106;-90
2023/03/24 11:00:23;;;;;;;4.00;2.20;;;15.50;99.90;;;;;;4934121;29;20491;-91
2023/03/24 11:03:13;;;;;;;2.90;1.95;;;15.40;99.90;;;;;;4934611;28;20047;-91
2023/03/24 11:05:42;;;;;;;3.72;1.85;;;15.60;99.90;;;;;;4935092;29;20368;-91
2023/03/24 11:08:16;;;;;;;3.55;1.90;;;15.70;99.90;;;;;;4934660;29;20047;-91
2023/03/24 11:10:42;;;;;;;5.22;2.20;;;15.70;99.90;;;;;;4935023;29;20032;-91
2023/03/24 11:13:26;;;;;;;2.70;1.80;;;15.90;99.90;;;;;;4934569;29;20032;-91
2023/03/24 11:16:06;;;;;;;3.53;1.77;;;16.00;99.90;;;;;;4934651;29;20035;-91
2023/03/24 11:18:32;;;;;;;4.00;2.08;;;16.00;99.90;;;;;;4934229;29;20489;-91
2023/03/24 11:21:03;;;;;;;5.45;2.10;;;15.90;99.90;;;;;;4934600;29;20039;-91
2023/03/24 11:23:30;;;;;;;5.25;1.98;;;15.90;99.90;;;;;;4933206;29;20028;-91
2023/03/24 11:26:13;;;;;;;4.53;2.20;;;16.10;99.90;;;;;;4935076;28;20101;-91
2023/03/24 11:28:46;;;;;;;5.03;2.20;;;16.00;99.90;;;;;;4934812;29;20055;-91
2023/03/24 11:31:23;;;;;;;4.53;1.80;;;16.00;99.90;;;;;;4934399;29;20043;-91
2023/03/24 11:33:56;;;;;;;3.90;2.20;;;15.90;99.90;;;;;;4934545;29;20028;-91
2023/03/24 11:36:33;;;;;;;7.15;2.08;;;15.90;99.90;;;;;;4934662;29;20521;-91
2023/03/24 11:39:16;;;;;;;3.30;2.13;;;15.90;99.90;;;;;;4933839;29;20028;-91
2023/03/24 11:41:50;;;;;;;2.63;1.95;;;15.90;99.90;;;;;;4934113;29;20020;-91
2023/03/24 11:44:24;;;;;;;7.88;2.35;;;15.80;99.90;;;;;;4934401;29;20028;-91
2023/03/24 11:46:57;;;;;;;3.88;2.03;;;15.70;99.90;;;;;;4953425;28;20061;-91
2023/03/24 11:49:28;;;;;;;5.05;2.10;;;15.60;99.90;;;;;;4953581;28;20030;-90
2023/03/24 11:51:54;;;;;;;5.93;2.15;;;15.60;99.90;;;;;;4951794;29;20035;-91
2023/03/24 11:54:42;;;;;;;5.35;2.20;;;15.70;99.90;;;;;;4953213;28;20027;-91
2023/03/24 11:57:12;;;;;;;5.63;2.38;;;15.70;99.90;;;;;;4953340;28;20528;-91
2023/03/24 11:59:44;;;;;;;4.25;1.90;;;15.70;99.90;;;;;;4953457;28;20027;-91
2023/03/24 12:02:18;;;;;;;3.58;2.08;;;15.60;99.90;;;;;;4952727;28;20066;-91
2023/03/24 12:05:18;;;;;;;5.15;2.13;;;15.60;99.90;;;;;;4953189;28;20102;-92
2023/03/24 12:07:52;;;;;;;6.05;2.38;;;15.60;99.90;;;;;;4953284;28;20031;-91
2023/03/24 12:10:51;;;;;;;4.25;2.28;;;15.50;99.90;;;;;;4951981;28;20050;-91
2023/03/24 12:13:48;;;;;;;4.38;2.08;;;15.60;99.90;;;;;;4952626;28;20026;-91
2023/03/24 12:16:38;;;;;;;2.10;1.90;;;15.60;99.90;;;;;;4951840;28;20123;-91
2023/03/24 12:19:28;;;;;;;5.75;2.25;;;15.60;99.90;;;;;;4953115;28;20531;-91
2023/03/24 12:21:53;;;;;;;2.50;1.80;;;15.70;99.90;;;;;;4952871;28;20424;-91
2023/03/24 12:24:40;;;;;;;2.92;1.83;;;15.80;99.90;;;;;;4953014;28;20058;-91
2023/03/24 12:27:26;;;;;;;3.35;2.25;;;15.90;99.90;;;;;;4952377;28;20062;-91
2023/03/24 12:30:01;;;;;;;3.42;1.88;;;16.00;99.90;;;;;;4952350;28;20038;-91
2023/03/24 12:32:57;;;;;;;4.97;1.90;;;16.20;99.90;;;;;;4952626;28;20462;-91
2023/03/24 12:35:55;;;;;;;4.43;1.90;;;16.20;99.90;;;;;;4952424;28;20031;-91
2023/03/24 12:38:39;;;;;;;4.70;2.25;;;16.40;99.90;;;;;;4952485;28;20019;-91
2023/03/24 12:41:10;;;;;;;4.90;2.38;;;16.30;99.90;;;;;;4952350;28;20038;-91
2023/03/24 12:44:16;;;;;;;2.38;1.63;;;16.30;99.90;;;;;;4952683;28;20023;-91
2023/03/24 12:47:00;;;;;;;4.53;2.22;;;16.30;99.90;;;;;;4933667;29;20089;-91
2023/03/24 12:49:46;;;;;;;4.47;1.90;;;16.60;99.90;;;;;;4933686;28;20058;-91
2023/03/24 12:52:18;;;;;;;6.78;2.15;;;16.50;99.90;;;;;;4933063;29;20097;-90
2023/03/24 12:54:49;;;;;;;2.88;1.60;;;16.50;99.90;;;;;;4933820;28;20077;-91
2023/03/24 12:57:23;;;;;;;3.53;1.90;;;16.40;99.90;;;;;;4933254;28;20027;-91
2023/03/24 12:59:58;;;;;;;3.85;1.80;;;16.40;99.90;;;;;;4933335;29;20026;-91
2023/03/24 13:02:37;;;;;;;10.23;1.90;;;16.40;99.90;;;;;;4932713;29;20110;-91
2023/03/24 13:05:14;;;;;;;7.05;2.08;;;16.30;99.90;;;;;;4933364;29;20032;-90
2023/03/24 13:07:46;;;;;;;3.45;1.90;;;16.40;99.90;;;;;;4933028;29;20027;-90
2023/03/24 13:10:19;;;;;;;4.40;1.73;;;16.40;99.90;;;;;;4933003;29;20036;-91
2023/03/24 13:12:49;;;;;;;3.63;1.70;;;16.40;99.90;;;;;;4934186;28;20448;-91